createdAt,value
2024-01-22T00:01:36.723Z,68.10
2024-01-22T00:05:02.864Z,68.11
2024-01-22T00:08:29.008Z,68.00
2024-01-22T00:11:55.268Z,67.98
2024-01-22T00:15:21.316Z,68.05
2024-01-22T00:18:48.261Z,68.05
2024-01-22T00:22:14.139Z,67.93
2024-01-22T00:25:40.337Z,67.84
2024-01-22T00:29:06.368Z,67.95
2024-01-22T00:32:32.622Z,67.78
2024-01-22T00:35:59.143Z,67.69
2024-01-22T00:39:25.882Z,67.73
2024-01-22T00:42:57.118Z,67.66
2024-01-22T00:46:23.522Z,67.63
2024-01-22T00:49:49.901Z,67.53
2024-01-22T00:53:16.002Z,67.53
2024-01-22T00:56:42.273Z,67.58
2024-01-22T01:00:12.456Z,67.52
2024-01-22T01:03:38.435Z,67.55
2024-01-22T01:07:04.108Z,67.55
2024-01-22T01:10:29.951Z,67.35
2024-01-22T01:13:56.223Z,67.36
2024-01-22T01:17:24.456Z,67.27
2024-01-22T01:20:50.552Z,67.28
2024-01-22T01:24:18.411Z,67.16
2024-01-22T01:27:44.313Z,67.23
2024-01-22T01:31:10.311Z,67.17
2024-01-22T01:34:36.501Z,67.13
2024-01-22T01:38:02.370Z,67.10
2024-01-22T01:41:28.506Z,67.06
2024-01-22T01:44:55.476Z,67.09
2024-01-22T01:48:21.709Z,67.06
2024-01-22T01:51:48.147Z,66.92
2024-01-22T01:55:14.783Z,66.90
2024-01-22T01:58:41.116Z,66.91
2024-01-22T02:02:07.855Z,66.78
2024-01-22T02:05:33.976Z,66.78
2024-01-22T02:09:00.339Z,66.94
2024-01-22T02:12:26.566Z,66.86
2024-01-22T02:15:52.287Z,66.79
2024-01-22T02:19:19.094Z,66.79
2024-01-22T02:22:45.480Z,66.86
2024-01-22T02:26:12.546Z,66.87
2024-01-22T02:29:38.485Z,66.88
2024-01-22T02:33:05.509Z,66.84
2024-01-22T02:36:31.411Z,66.69
2024-01-22T02:39:57.923Z,66.70
2024-01-22T02:43:24.526Z,66.67
2024-01-22T02:46:50.597Z,66.82
2024-01-22T02:50:16.788Z,66.68
2024-01-22T02:53:43.031Z,66.67
2024-01-22T02:57:11.576Z,66.64
2024-01-22T03:00:38.034Z,66.81
2024-01-22T03:04:04.146Z,66.72
2024-01-22T03:07:31.123Z,66.67
2024-01-22T03:10:58.298Z,66.61
2024-01-22T03:14:24.046Z,66.58
2024-01-22T03:17:50.278Z,66.81
2024-01-22T03:21:17.191Z,66.82
2024-01-22T03:24:47.740Z,66.73
2024-01-22T03:28:13.810Z,66.72
2024-01-22T03:31:40.078Z,66.71
2024-01-22T03:35:06.639Z,66.78
2024-01-22T03:38:32.266Z,66.82
2024-01-22T03:41:58.035Z,66.69
2024-01-22T03:45:25.814Z,66.98
2024-01-22T03:48:52.142Z,66.83
2024-01-22T03:52:18.037Z,66.97
2024-01-22T03:55:44.472Z,66.69
2024-01-22T03:59:12.038Z,66.76
2024-01-22T04:02:38.109Z,66.65
2024-01-22T04:06:05.354Z,66.77
2024-01-22T04:09:31.362Z,66.75
2024-01-22T04:12:58.269Z,66.83
2024-01-22T04:16:24.347Z,66.63
2024-01-22T04:19:50.932Z,66.67
2024-01-22T04:23:16.913Z,66.68
2024-01-22T04:26:42.432Z,66.76
2024-01-22T04:30:10.164Z,66.75
2024-01-22T04:33:37.149Z,66.91
2024-01-22T04:37:02.805Z,66.82
2024-01-22T04:40:29.079Z,66.89
2024-01-22T04:43:54.834Z,66.91
2024-01-22T04:47:21.044Z,66.92
2024-01-22T04:50:47.455Z,66.95
2024-01-22T04:54:14.101Z,66.91
2024-01-22T04:57:39.869Z,66.90
2024-01-22T05:01:06.002Z,67.04
2024-01-22T05:04:31.994Z,67.02
2024-01-22T05:07:57.860Z,66.99
2024-01-22T05:11:23.722Z,67.05
2024-01-22T05:14:49.850Z,66.98
2024-01-22T05:18:16.831Z,67.08
2024-01-22T05:21:42.907Z,67.07
2024-01-22T05:25:11.719Z,67.09
2024-01-22T05:28:38.239Z,67.11
2024-01-22T05:32:03.963Z,66.82
2024-01-22T05:35:29.885Z,67.08
2024-01-22T05:38:56.051Z,67.06
2024-01-22T05:42:21.988Z,67.05
2024-01-22T05:45:48.290Z,66.95
2024-01-22T05:49:14.190Z,66.98
2024-01-22T05:52:40.553Z,66.86
2024-01-22T05:56:07.993Z,66.91
2024-01-22T05:59:34.304Z,67.05
2024-01-22T06:03:02.267Z,67.13
2024-01-22T06:06:28.879Z,67.13
2024-01-22T06:10:01.775Z,66.87
2024-01-22T06:13:34.521Z,67.26
2024-01-22T06:17:05.455Z,66.82
2024-01-22T06:20:36.218Z,67.12
2024-01-22T06:24:03.772Z,66.96
2024-01-22T06:27:30.249Z,66.85
2024-01-22T06:30:56.401Z,67.09
2024-01-22T06:34:25.367Z,67.05
2024-01-22T06:37:51.812Z,66.91
2024-01-22T06:41:20.630Z,67.05
2024-01-22T06:44:46.533Z,66.97
2024-01-22T06:48:13.666Z,66.98
2024-01-22T06:51:45.969Z,66.69
2024-01-22T06:55:14.362Z,66.90
2024-01-22T06:58:40.456Z,66.95
2024-01-22T07:02:07.547Z,66.88
2024-01-22T07:05:34.744Z,66.94
2024-01-22T07:09:01.248Z,66.71
2024-01-22T07:12:31.803Z,66.52
2024-01-22T07:15:58.426Z,66.70
2024-01-22T07:19:24.770Z,66.79
2024-01-22T07:22:51.422Z,66.65
2024-01-22T07:26:17.617Z,66.81
2024-01-22T07:29:43.817Z,66.53
2024-01-22T07:33:10.148Z,66.72
2024-01-22T07:36:36.224Z,66.55
2024-01-22T07:40:02.813Z,66.63
2024-01-22T07:43:29.041Z,66.57
2024-01-22T07:46:57.524Z,66.52
2024-01-22T07:50:23.656Z,66.43
2024-01-22T07:53:49.697Z,66.50
2024-01-22T07:57:16.308Z,66.52
2024-01-22T08:00:42.640Z,66.48
2024-01-22T08:04:09.129Z,66.34
2024-01-22T08:07:37.944Z,66.30
2024-01-22T08:11:06.997Z,66.30
2024-01-22T08:14:34.573Z,66.48
2024-01-22T08:18:00.569Z,66.26
2024-01-22T08:21:26.485Z,66.05
2024-01-22T08:24:53.579Z,66.19
2024-01-22T08:28:19.706Z,66.20
2024-01-22T08:31:46.252Z,66.32
2024-01-22T08:35:12.919Z,65.84
2024-01-22T08:38:39.162Z,66.22
2024-01-22T08:42:05.205Z,66.21
2024-01-22T08:45:38.056Z,66.10
2024-01-22T08:49:04.490Z,66.09
2024-01-22T08:52:30.422Z,66.07
2024-01-22T08:55:59.151Z,65.72
2024-01-22T08:59:25.362Z,66.09
2024-01-22T09:02:52.594Z,65.91
2024-01-22T09:06:19.728Z,65.77
2024-01-22T09:09:46.245Z,65.87
2024-01-22T09:13:15.765Z,65.54
2024-01-22T09:16:42.075Z,65.64
2024-01-22T09:20:10.370Z,65.79
2024-01-22T09:23:39.687Z,65.61
2024-01-22T09:27:06.732Z,65.47
2024-01-22T09:30:35.364Z,65.51
2024-01-22T09:34:01.330Z,65.82
2024-01-22T09:37:27.659Z,65.52
2024-01-22T09:40:54.599Z,65.74
2024-01-22T09:44:21.314Z,65.79
2024-01-22T09:47:49.919Z,65.89
2024-01-22T09:51:17.161Z,65.74
2024-01-22T09:54:43.656Z,65.50
2024-01-22T09:58:16.050Z,65.75
2024-01-22T10:01:43.402Z,65.76
2024-01-22T10:05:11.160Z,65.66
2024-01-22T10:08:37.503Z,65.60
2024-01-22T10:12:04.187Z,65.48
2024-01-22T10:15:31.043Z,65.60
2024-01-22T10:19:05.913Z,65.30
2024-01-22T10:22:31.870Z,65.80
2024-01-22T10:26:10.826Z,65.45
2024-01-22T10:29:36.829Z,65.33
2024-01-22T10:33:13.669Z,65.36
2024-01-22T10:36:39.396Z,65.52
2024-01-22T10:40:10.997Z,65.40
2024-01-22T10:43:39.769Z,65.16
2024-01-22T10:47:06.950Z,65.24
2024-01-22T10:50:34.269Z,65.28
2024-01-22T10:54:00.571Z,65.17
2024-01-22T10:57:39.025Z,65.12
2024-01-22T11:01:11.435Z,64.95
2024-01-22T11:04:45.617Z,64.98
2024-01-22T11:08:14.108Z,64.84
2024-01-22T11:11:44.529Z,65.00
2024-01-22T11:15:12.059Z,64.88
2024-01-22T11:18:39.076Z,64.97
2024-01-22T11:22:10.410Z,64.82
2024-01-22T11:25:36.845Z,64.95
2024-01-22T11:29:15.310Z,64.70
2024-01-22T11:32:45.012Z,64.85
2024-01-22T11:36:12.213Z,64.88
2024-01-22T11:39:48.642Z,64.97
2024-01-22T11:43:15.613Z,64.85
2024-01-22T11:46:42.097Z,65.17
2024-01-22T11:50:09.493Z,65.02
2024-01-22T11:53:52.325Z,65.10
2024-01-22T11:57:20.259Z,65.06
2024-01-22T12:00:46.117Z,65.34
2024-01-22T12:07:43.643Z,65.14
2024-01-22T12:11:15.337Z,65.47
2024-01-22T12:14:41.350Z,65.66
2024-01-22T12:18:09.008Z,65.38
2024-01-22T12:21:35.124Z,65.53
2024-01-22T12:25:11.649Z,65.65
2024-01-22T12:28:37.880Z,65.78
2024-01-22T12:32:07.514Z,65.86
2024-01-22T12:35:33.679Z,65.91
2024-01-22T12:39:03.119Z,66.11
2024-01-22T12:42:29.068Z,66.36
2024-01-22T12:46:06.959Z,66.47
2024-01-22T12:49:33.805Z,66.22
2024-01-22T12:53:00.278Z,66.47
2024-01-22T12:56:26.577Z,66.48
2024-01-22T12:59:52.971Z,66.66
2024-01-22T13:03:19.880Z,66.86
2024-01-22T13:06:47.377Z,66.69
2024-01-22T13:10:14.381Z,66.91
2024-01-22T13:13:40.460Z,66.84
2024-01-22T13:17:09.804Z,67.06
2024-01-22T13:20:37.167Z,66.92
2024-01-22T13:24:03.263Z,66.86
2024-01-22T13:27:29.468Z,66.96
2024-01-22T13:30:56.048Z,67.01
2024-01-22T13:34:22.345Z,67.08
2024-01-22T13:37:48.873Z,67.33
2024-01-22T13:41:15.735Z,67.20
2024-01-22T13:44:41.541Z,67.28
2024-01-22T13:48:11.607Z,67.39
2024-01-22T13:51:38.197Z,67.42
2024-01-22T13:55:05.026Z,67.44
2024-01-22T13:58:32.422Z,67.47
2024-01-22T14:01:59.589Z,67.49
2024-01-22T14:05:26.340Z,67.73
2024-01-22T14:08:51.963Z,67.78
2024-01-22T14:12:18.047Z,67.88
2024-01-22T14:15:45.122Z,68.06
2024-01-22T14:19:11.748Z,68.17
2024-01-22T14:22:40.177Z,68.27
2024-01-22T14:26:09.088Z,68.35
2024-01-22T14:29:35.286Z,68.23
2024-01-22T14:33:01.762Z,68.43
2024-01-22T14:36:27.921Z,68.50
2024-01-22T14:39:54.207Z,68.72
2024-01-22T14:43:20.206Z,68.69
2024-01-22T14:46:48.105Z,68.98
2024-01-22T14:50:16.782Z,69.06
2024-01-22T14:53:42.952Z,69.21
2024-01-22T14:57:09.929Z,69.34
2024-01-22T15:00:36.634Z,69.49
2024-01-22T15:04:04.828Z,69.47
2024-01-22T15:07:30.526Z,69.67
2024-01-22T15:10:56.362Z,69.80
2024-01-22T15:14:23.666Z,69.81
2024-01-22T15:17:49.887Z,69.91
2024-01-22T15:21:16.396Z,70.09
2024-01-22T15:24:42.733Z,70.11
2024-01-22T15:28:09.949Z,70.27
2024-01-22T15:31:38.502Z,70.25
2024-01-22T15:35:07.234Z,70.26
2024-01-22T15:38:34.626Z,70.36
2024-01-22T15:42:02.243Z,70.53
2024-01-22T15:45:28.677Z,70.45
2024-01-22T15:48:55.282Z,70.60
2024-01-22T15:52:21.718Z,70.66
2024-01-22T15:55:47.962Z,70.53
2024-01-22T15:59:15.221Z,70.77
2024-01-22T16:02:41.299Z,70.80
2024-01-22T16:06:07.915Z,70.82
2024-01-22T16:09:34.596Z,70.62
2024-01-22T16:13:01.756Z,70.85
2024-01-22T16:16:28.131Z,70.73
2024-01-22T16:19:54.114Z,70.79
2024-01-22T16:23:20.167Z,70.89
2024-01-22T16:26:46.773Z,70.91
2024-01-22T16:30:15.506Z,70.91
2024-01-22T16:33:42.108Z,70.94
2024-01-22T16:37:11.181Z,71.05
2024-01-22T16:40:37.525Z,71.00
2024-01-22T16:44:04.270Z,71.13
2024-01-22T16:47:30.456Z,71.04
2024-01-22T16:50:56.747Z,71.09
2024-01-22T16:54:22.703Z,71.07
2024-01-22T16:57:49.642Z,71.41
2024-01-22T17:01:17.576Z,71.18
2024-01-22T17:04:43.710Z,71.07
2024-01-22T17:08:10.540Z,71.23
2024-01-22T17:11:36.814Z,71.35
2024-01-22T17:15:02.948Z,71.23
2024-01-22T17:18:28.968Z,71.25
2024-01-22T17:21:54.996Z,71.17
2024-01-22T17:25:21.333Z,71.32
2024-01-22T17:28:49.109Z,71.26
2024-01-22T17:32:15.293Z,71.20
2024-01-22T17:35:41.029Z,71.21
2024-01-22T17:39:08.058Z,71.34
2024-01-22T17:42:34.146Z,71.13
2024-01-22T17:46:00.304Z,71.28
2024-01-22T17:49:27.037Z,71.30
2024-01-22T17:52:53.058Z,71.26
2024-01-22T17:56:19.115Z,71.31
2024-01-22T17:59:45.719Z,71.49
2024-01-22T18:03:12.417Z,71.40
2024-01-22T18:06:38.230Z,71.56
2024-01-22T18:10:05.493Z,71.54
2024-01-22T18:13:31.643Z,71.50
2024-01-22T18:16:57.215Z,71.81
2024-01-22T18:20:23.346Z,71.97
2024-01-22T18:23:49.510Z,72.05
2024-01-22T18:27:15.378Z,72.16
2024-01-22T18:30:41.989Z,72.17
2024-01-22T18:34:08.303Z,72.31
2024-01-22T18:37:35.043Z,72.34
2024-01-22T18:41:00.865Z,72.32
2024-01-22T18:44:26.582Z,72.49
2024-01-22T18:47:53.039Z,72.47
2024-01-22T18:51:18.936Z,72.54
2024-01-22T18:54:45.331Z,72.66
2024-01-22T18:58:11.476Z,72.74
2024-01-22T19:01:37.555Z,72.94
2024-01-22T19:05:05.708Z,72.93
2024-01-22T19:08:32.117Z,72.89
2024-01-22T19:11:58.542Z,72.99
2024-01-22T19:15:24.710Z,72.99
2024-01-22T19:18:51.218Z,73.06
2024-01-22T19:22:18.038Z,73.18
2024-01-22T19:25:44.678Z,73.09
2024-01-22T19:29:10.711Z,73.18
2024-01-22T19:32:37.310Z,73.03
2024-01-22T19:36:03.435Z,73.13
2024-01-22T19:39:29.557Z,73.09
2024-01-22T19:42:56.109Z,73.23
2024-01-22T19:46:21.798Z,73.32
2024-01-22T19:49:47.958Z,73.34
2024-01-22T19:53:14.322Z,73.25
2024-01-22T19:56:46.576Z,73.31
2024-01-22T20:00:14.891Z,73.30
2024-01-22T20:03:40.963Z,73.29
2024-01-22T20:07:11.174Z,73.28
2024-01-22T20:10:37.421Z,73.23
2024-01-22T20:14:03.381Z,73.42
2024-01-22T20:17:29.488Z,73.41
2024-01-22T20:20:55.923Z,73.52
2024-01-22T20:24:22.151Z,73.60
2024-01-22T20:27:47.988Z,73.60
2024-01-22T20:31:13.771Z,73.78
2024-01-22T20:34:40.082Z,73.73
2024-01-22T20:38:07.045Z,73.72
2024-01-22T20:41:33.119Z,74.09
2024-01-22T20:44:59.231Z,74.35
2024-01-22T20:48:26.059Z,74.25
2024-01-22T20:51:52.273Z,74.48
2024-01-22T20:55:23.497Z,74.42
2024-01-22T20:58:49.648Z,74.52
2024-01-22T21:02:19.161Z,74.85
2024-01-22T21:05:45.543Z,74.74
2024-01-22T21:09:13.398Z,74.95
2024-01-22T21:12:40.075Z,75.03
2024-01-22T21:16:06.943Z,75.10
2024-01-22T21:19:34.157Z,75.07
2024-01-22T21:23:00.741Z,75.09
2024-01-22T21:26:27.278Z,75.13
2024-01-22T21:29:53.328Z,75.31
2024-01-22T21:33:22.358Z,75.33
2024-01-22T21:36:50.190Z,75.35
2024-01-22T21:40:17.994Z,75.40
2024-01-22T21:43:44.399Z,75.32
2024-01-22T21:47:11.172Z,75.40
2024-01-22T21:50:37.279Z,75.45
2024-01-22T21:54:03.031Z,75.56
2024-01-22T21:57:30.508Z,75.84
2024-01-22T22:00:56.948Z,76.04
2024-01-22T22:04:22.900Z,76.02
2024-01-22T22:07:50.419Z,76.06
2024-01-22T22:11:16.898Z,76.21
2024-01-22T22:14:43.583Z,76.25
2024-01-22T22:18:11.010Z,76.34
2024-01-22T22:21:48.762Z,76.33
2024-01-22T22:25:15.107Z,76.31
2024-01-22T22:28:41.021Z,76.53
2024-01-22T22:32:12.548Z,76.64
2024-01-22T22:35:42.743Z,76.61
2024-01-22T22:39:15.329Z,76.74
2024-01-22T22:42:42.251Z,76.76
2024-01-22T22:46:10.119Z,76.79
2024-01-22T22:49:37.545Z,76.79
2024-01-22T22:53:04.035Z,76.79
2024-01-22T22:56:30.374Z,76.84
2024-01-22T22:59:59.888Z,76.83
2024-01-22T23:03:27.049Z,76.94
2024-01-22T23:06:53.652Z,76.75
2024-01-22T23:10:19.740Z,76.92
2024-01-22T23:13:46.137Z,77.09
2024-01-22T23:17:12.328Z,76.98
2024-01-22T23:20:38.129Z,76.99
2024-01-22T23:24:04.611Z,77.07
2024-01-22T23:27:32.143Z,77.15
2024-01-22T23:31:00.710Z,77.21
2024-01-22T23:34:29.123Z,77.16
2024-01-22T23:38:00.134Z,77.27
2024-01-22T23:41:26.223Z,77.63
2024-01-22T23:44:54.553Z,77.43
2024-01-22T23:48:22.833Z,77.60
2024-01-22T23:51:49.165Z,77.58
2024-01-22T23:55:16.155Z,77.39
2024-01-22T23:58:42.013Z,77.44
